sensor_id;sensor_type;location;lat;lon;timestamp;pressure;altitude;pressure_sealevel;temperature;humidity
1207;BME280;593;53.184;8.216;2023-04-05T00:01:22;102198.91;;;5.77;72.23
1207;BME280;593;53.184;8.216;2023-04-05T00:03:50;102192.31;;;5.73;72.02
1207;BME280;593;53.184;8.216;2023-04-05T00:06:16;102191.66;;;5.71;72.06
1207;BME280;593;53.184;8.216;2023-04-05T00:08:41;102194.81;;;5.68;72.58
1207;BME280;593;53.184;8.216;2023-04-05T00:11:08;102196.06;;;5.66;72.73
1207;BME280;593;53.184;8.216;2023-04-05T00:13:34;102193.56;;;5.64;72.58
1207;BME280;593;53.184;8.216;2023-04-05T00:15:59;102198.34;;;5.62;73.28
1207;BME280;593;53.184;8.216;2023-04-05T00:18:25;102186.09;;;5.60;72.75
1207;BME280;593;53.184;8.216;2023-04-05T00:20:51;102135.56;;;5.23;73.27
1207;BME280;593;53.184;8.216;2023-04-05T00:23:16;102189.63;;;5.54;73.37
1207;BME280;593;53.184;8.216;2023-04-05T00:25:43;102183.63;;;5.52;72.99
1207;BME280;593;53.184;8.216;2023-04-05T00:28:09;102176.78;;;5.49;73.01
1207;BME280;593;53.184;8.216;2023-04-05T00:30:34;102188.81;;;5.47;73.11
1207;BME280;593;53.184;8.216;2023-04-05T00:33:00;102182.81;;;5.45;73.33
1207;BME280;593;53.184;8.216;2023-04-05T00:35:27;102178.69;;;5.42;73.64
1207;BME280;593;53.184;8.216;2023-04-05T00:37:52;102169.13;;;5.40;73.38
1207;BME280;593;53.184;8.216;2023-04-05T00:40:17;102171.41;;;5.36;73.49
1207;BME280;593;53.184;8.216;2023-04-05T00:42:43;102169.16;;;5.33;73.86
1207;BME280;593;53.184;8.216;2023-04-05T00:45:08;102178.50;;;5.31;73.51
1207;BME280;593;53.184;8.216;2023-04-05T00:47:34;102171.84;;;5.27;74.04
1207;BME280;593;53.184;8.216;2023-04-05T00:49:59;102176.03;;;5.23;74.15
1207;BME280;593;53.184;8.216;2023-04-05T00:52:25;102180.56;;;5.22;74.44
1207;BME280;593;53.184;8.216;2023-04-05T00:54:52;102172.91;;;5.19;74.51
1207;BME280;593;53.184;8.216;2023-04-05T00:57:18;102172.28;;;5.17;74.25
1207;BME280;593;53.184;8.216;2023-04-05T00:59:44;102168.13;;;5.14;74.01
1207;BME280;593;53.184;8.216;2023-04-05T01:02:29;102167.31;;;5.14;74.63
1207;BME280;593;53.184;8.216;2023-04-05T01:05:01;102168.78;;;5.10;74.69
1207;BME280;593;53.184;8.216;2023-04-05T01:07:39;102165.03;;;5.04;74.94
1207;BME280;593;53.184;8.216;2023-04-05T01:10:09;102160.91;;;5.02;74.80
1207;BME280;593;53.184;8.216;2023-04-05T01:12:37;102148.47;;;4.94;74.81
1207;BME280;593;53.184;8.216;2023-04-05T01:15:04;102168.38;;;5.00;75.27
1207;BME280;593;53.184;8.216;2023-04-05T01:17:30;102163.19;;;4.98;75.67
1207;BME280;593;53.184;8.216;2023-04-05T01:20:03;102158.22;;;4.95;75.63
1207;BME280;593;53.184;8.216;2023-04-05T01:31:34;102153.03;;;4.81;76.16
1207;BME280;593;53.184;8.216;2023-04-05T01:34:16;102161.31;;;4.79;76.17
1207;BME280;593;53.184;8.216;2023-04-05T01:36:49;102163.41;;;4.77;76.13
1207;BME280;593;53.184;8.216;2023-04-05T01:39:19;102168.34;;;4.74;76.20
1207;BME280;593;53.184;8.216;2023-04-05T01:41:45;102164.84;;;4.73;76.61
1207;BME280;593;53.184;8.216;2023-04-05T01:44:10;102158.81;;;4.71;76.57
1207;BME280;593;53.184;8.216;2023-04-05T01:46:36;102153.66;;;4.70;76.99
1207;BME280;593;53.184;8.216;2023-04-05T01:49:01;102153.88;;;4.68;76.87
1207;BME280;593;53.184;8.216;2023-04-05T01:51:27;102145.13;;;4.66;77.06
1207;BME280;593;53.184;8.216;2023-04-05T01:53:52;102148.88;;;4.65;77.19
1207;BME280;593;53.184;8.216;2023-04-05T01:56:17;102132.31;;;4.55;76.80
1207;BME280;593;53.184;8.216;2023-04-05T01:58:43;102141.44;;;4.61;77.22
1207;BME280;593;53.184;8.216;2023-04-05T02:01:08;102139.53;;;4.61;76.72
1207;BME280;593;53.184;8.216;2023-04-05T02:03:33;102137.47;;;4.57;77.02
1207;BME280;593;53.184;8.216;2023-04-05T02:05:59;102123.19;;;4.49;76.97
1207;BME280;593;53.184;8.216;2023-04-05T02:08:25;102115.91;;;4.43;77.44
1207;BME280;593;53.184;8.216;2023-04-05T02:10:53;102128.13;;;4.46;77.02
1207;BME280;593;53.184;8.216;2023-04-05T02:13:19;102124.19;;;4.48;76.99
1207;BME280;593;53.184;8.216;2023-04-05T02:15:47;102123.41;;;4.48;76.93
1207;BME280;593;53.184;8.216;2023-04-05T02:18:13;102128.97;;;4.46;76.98
1207;BME280;593;53.184;8.216;2023-04-05T02:20:38;102133.53;;;4.46;76.64
1207;BME280;593;53.184;8.216;2023-04-05T02:23:04;102128.34;;;4.44;76.75
1207;BME280;593;53.184;8.216;2023-04-05T02:25:29;102121.50;;;4.42;76.82
1207;BME280;593;53.184;8.216;2023-04-05T02:27:54;102128.97;;;4.40;76.86
1207;BME280;593;53.184;8.216;2023-04-05T02:30:20;102125.66;;;4.38;76.90
1207;BME280;593;53.184;8.216;2023-04-05T02:32:45;102122.31;;;4.36;76.99
1207;BME280;593;53.184;8.216;2023-04-05T02:35:11;102124.22;;;4.35;77.00
1207;BME280;593;53.184;8.216;2023-04-05T02:37:37;102102.63;;;4.22;77.09
1207;BME280;593;53.184;8.216;2023-04-05T02:40:05;102115.69;;;4.32;77.21
1207;BME280;593;53.184;8.216;2023-04-05T02:42:33;102114.47;;;4.28;77.19
1207;BME280;593;53.184;8.216;2023-04-05T02:44:58;102120.88;;;4.27;77.10
1207;BME280;593;53.184;8.216;2023-04-05T02:47:24;102121.28;;;4.24;77.08
1207;BME280;593;53.184;8.216;2023-04-05T02:49:49;102114.25;;;4.23;77.05
1207;BME280;593;53.184;8.216;2023-04-05T02:52:15;102118.19;;;4.20;77.50
1207;BME280;593;53.184;8.216;2023-04-05T02:54:41;102123.56;;;4.20;77.31
1207;BME280;593;53.184;8.216;2023-04-05T02:57:06;102111.53;;;4.16;77.63
1207;BME280;593;53.184;8.216;2023-04-05T02:59:35;102114.22;;;4.16;77.54
1207;BME280;593;53.184;8.216;2023-04-05T03:02:01;102110.06;;;4.14;77.77
1207;BME280;593;53.184;8.216;2023-04-05T03:04:26;102110.28;;;4.12;77.26
1207;BME280;593;53.184;8.216;2023-04-05T03:06:52;102096.59;;;4.01;77.74
1207;BME280;593;53.184;8.216;2023-04-05T03:09:19;102113.38;;;4.09;77.66
1207;BME280;593;53.184;8.216;2023-04-05T03:11:45;102108.22;;;4.08;77.51
1207;BME280;593;53.184;8.216;2023-04-05T03:14:10;102115.84;;;4.04;77.80
1207;BME280;593;53.184;8.216;2023-04-05T03:16:36;102103.63;;;4.02;77.64
1207;BME280;593;53.184;8.216;2023-04-05T03:19:03;102103.63;;;4.02;77.65
1207;BME280;593;53.184;8.216;2023-04-05T03:21:29;102105.69;;;4.00;77.58
1207;BME280;593;53.184;8.216;2023-04-05T03:23:54;102099.69;;;3.98;77.46
1207;BME280;593;53.184;8.216;2023-04-05T03:26:20;102100.94;;;3.95;77.65
1207;BME280;593;53.184;8.216;2023-04-05T03:28:45;102107.34;;;3.94;77.76
1207;BME280;593;53.184;8.216;2023-04-05T03:31:12;102096.34;;;3.89;77.86
1207;BME280;593;53.184;8.216;2023-04-05T03:33:37;102047.22;;;3.54;78.11
1207;BME280;593;53.184;8.216;2023-04-05T03:36:04;102096.97;;;3.84;78.14
1207;BME280;593;53.184;8.216;2023-04-05T03:38:29;102105.03;;;3.84;78.10
1207;BME280;593;53.184;8.216;2023-04-05T03:40:57;102095.72;;;3.80;78.18
1207;BME280;593;53.184;8.216;2023-04-05T03:43:23;102101.28;;;3.79;78.06
1207;BME280;593;53.184;8.216;2023-04-05T03:45:48;102101.69;;;3.76;78.23
1207;BME280;593;53.184;8.216;2023-04-05T03:48:14;102092.59;;;3.70;78.44
1207;BME280;593;53.184;8.216;2023-04-05T03:50:44;102094.22;;;3.71;78.50
1207;BME280;593;53.184;8.216;2023-04-05T03:53:09;102097.53;;;3.67;78.61
1207;BME280;593;53.184;8.216;2023-04-05T03:55:35;102088.84;;;3.65;78.93
1207;BME280;593;53.184;8.216;2023-04-05T03:58:00;102088.22;;;3.63;78.65
1207;BME280;593;53.184;8.216;2023-04-05T04:00:26;102088.41;;;3.61;78.69
1207;BME280;593;53.184;8.216;2023-04-05T04:02:52;102086.94;;;3.59;78.55
1207;BME280;593;53.184;8.216;2023-04-05T04:05:18;102094.59;;;3.55;78.74
1207;BME280;593;53.184;8.216;2023-04-05T04:07:45;102091.91;;;3.55;78.77
1207;BME280;593;53.184;8.216;2023-04-05T04:10:13;102088.56;;;3.47;78.42
1207;BME280;593;53.184;8.216;2023-04-05T04:12:39;102092.69;;;3.49;79.20
1207;BME280;593;53.184;8.216;2023-04-05T04:15:05;102089.38;;;3.47;78.91
1207;BME280;593;53.184;8.216;2023-04-05T04:17:32;102085.66;;;3.48;79.23
1207;BME280;593;53.184;8.216;2023-04-05T04:19:59;102083.38;;;3.45;78.96
1207;BME280;593;53.184;8.216;2023-04-05T04:22:25;102083.34;;;3.39;79.24
1207;BME280;593;53.184;8.216;2023-04-05T04:25:00;102083.34;;;3.39;79.24
1207;BME280;593;53.184;8.216;2023-04-05T04:27:32;102075.69;;;3.36;79.60
1207;BME280;593;53.184;8.216;2023-04-05T04:29:59;102069.66;;;3.27;79.40
1207;BME280;593;53.184;8.216;2023-04-05T04:32:29;102083.94;;;3.34;79.27
1207;BME280;593;53.184;8.216;2023-04-05T04:35:14;102086.84;;;3.33;79.19
1207;BME280;593;53.184;8.216;2023-04-05T04:37:46;102084.94;;;3.27;79.68
1207;BME280;593;53.184;8.216;2023-04-05T04:40:15;102075.25;;;3.26;79.62
1207;BME280;593;53.184;8.216;2023-04-05T04:42:44;102084.31;;;3.24;79.99
1207;BME280;593;53.184;8.216;2023-04-05T04:45:13;102089.91;;;3.23;80.13
1207;BME280;593;53.184;8.216;2023-04-05T04:47:41;102087.41;;;3.21;80.09
1207;BME280;593;53.184;8.216;2023-04-05T04:50:07;102087.59;;;3.20;80.02
1207;BME280;593;53.184;8.216;2023-04-05T04:52:34;102091.91;;;3.14;80.38
1207;BME280;593;53.184;8.216;2023-04-05T04:54:59;102096.66;;;3.12;80.64
1207;BME280;593;53.184;8.216;2023-04-05T04:57:27;102095.81;;;3.12;80.63
1207;BME280;593;53.184;8.216;2023-04-05T04:59:52;102095.19;;;3.10;80.53
1207;BME280;593;53.184;8.216;2023-04-05T05:02:22;102091.69;;;3.09;80.57
1207;BME280;593;53.184;8.216;2023-04-05T05:04:48;102099.13;;;3.07;80.92
1207;BME280;593;53.184;8.216;2023-04-05T05:07:13;102071.53;;;2.92;80.92
1207;BME280;593;53.184;8.216;2023-04-05T05:09:38;102096.59;;;3.06;81.12
1207;BME280;593;53.184;8.216;2023-04-05T05:12:04;102103.03;;;3.05;80.99
1207;BME280;593;53.184;8.216;2023-04-05T05:14:29;102097.81;;;3.03;81.43
1207;BME280;593;53.184;8.216;2023-04-05T05:16:54;102090.81;;;3.02;81.57
1207;BME280;593;53.184;8.216;2023-04-05T05:19:23;102090.81;;;3.02;81.96
1207;BME280;593;53.184;8.216;2023-04-05T05:21:48;102092.44;;;3.03;82.25
1207;BME280;593;53.184;8.216;2023-04-05T05:24:17;102092.28;;;3.05;82.21
1207;BME280;593;53.184;8.216;2023-04-05T05:26:42;102094.75;;;3.06;82.38
1207;BME280;593;53.184;8.216;2023-04-05T05:29:08;102085.06;;;3.05;82.20
1207;BME280;593;53.184;8.216;2023-04-05T05:31:33;102082.75;;;3.02;82.45
1207;BME280;593;53.184;8.216;2023-04-05T05:33:58;102086.28;;;3.03;82.36
1207;BME280;593;53.184;8.216;2023-04-05T05:36:24;102079.63;;;2.99;82.71
1207;BME280;593;53.184;8.216;2023-04-05T05:38:50;102074.63;;;2.96;82.56
1207;BME280;593;53.184;8.216;2023-04-05T05:41:16;102086.03;;;2.98;82.71
1207;BME280;593;53.184;8.216;2023-04-05T05:43:42;102089.53;;;2.98;82.59
1207;BME280;593;53.184;8.216;2023-04-05T05:46:07;102084.59;;;3.02;83.10
1207;BME280;593;53.184;8.216;2023-04-05T05:48:33;102084.81;;;3.00;83.18
1207;BME280;593;53.184;8.216;2023-04-05T05:50:58;102083.75;;;3.01;83.67
1207;BME280;593;53.184;8.216;2023-04-05T05:53:26;102074.31;;;3.05;83.64
1207;BME280;593;53.184;8.216;2023-04-05T05:55:52;102079.25;;;3.08;83.86
1207;BME280;593;53.184;8.216;2023-04-05T05:58:17;102075.34;;;3.11;83.85
1207;BME280;593;53.184;8.216;2023-04-05T06:00:43;102086.75;;;3.13;83.27
1207;BME280;593;53.184;8.216;2023-04-05T06:03:09;102089.00;;;3.16;83.84
1207;BME280;593;53.184;8.216;2023-04-05T06:05:34;102094.84;;;3.19;83.92
1207;BME280;593;53.184;8.216;2023-04-05T06:08:00;102100.91;;;3.28;83.82
1207;BME280;593;53.184;8.216;2023-04-05T06:10:25;102091.38;;;3.32;83.77
1207;BME280;593;53.184;8.216;2023-04-05T06:12:51;102088.16;;;3.43;83.30
1207;BME280;593;53.184;8.216;2023-04-05T06:15:16;102082.78;;;3.56;82.24
1207;BME280;593;53.184;8.216;2023-04-05T06:17:41;102084.91;;;3.67;81.49
1207;BME280;593;53.184;8.216;2023-04-05T06:20:08;102090.34;;;3.80;80.32
1207;BME280;593;53.184;8.216;2023-04-05T06:22:36;102084.56;;;3.90;79.43
1207;BME280;593;53.184;8.216;2023-04-05T06:25:01;102091.63;;;4.04;77.73
1207;BME280;593;53.184;8.216;2023-04-05T06:27:26;102088.34;;;4.15;75.64
1207;BME280;593;53.184;8.216;2023-04-05T06:29:52;102085.88;;;4.27;75.00
1207;BME280;593;53.184;8.216;2023-04-05T06:32:19;102096.88;;;4.45;74.70
1207;BME280;593;53.184;8.216;2023-04-05T06:34:45;102092.50;;;4.57;73.68
1207;BME280;593;53.184;8.216;2023-04-05T06:37:13;102093.97;;;4.60;72.61
1207;BME280;593;53.184;8.216;2023-04-05T06:39:38;102102.25;;;4.78;71.63
1207;BME280;593;53.184;8.216;2023-04-05T06:42:03;102093.72;;;4.87;70.36
1207;BME280;593;53.184;8.216;2023-04-05T06:44:29;102085.22;;;4.84;70.14
1207;BME280;593;53.184;8.216;2023-04-05T06:46:54;102097.25;;;5.01;69.68
1207;BME280;593;53.184;8.216;2023-04-05T06:49:19;102097.00;;;5.09;69.85
1207;BME280;593;53.184;8.216;2023-04-05T06:51:45;102093.06;;;5.18;68.96
1207;BME280;593;53.184;8.216;2023-04-05T06:54:10;102096.56;;;5.25;68.82
1207;BME280;593;53.184;8.216;2023-04-05T06:56:36;102093.00;;;5.31;68.40
1207;BME280;593;53.184;8.216;2023-04-05T06:59:01;102085.53;;;5.33;68.60
1207;BME280;593;53.184;8.216;2023-04-05T07:01:28;102093.75;;;5.51;68.94
1207;BME280;593;53.184;8.216;2023-04-05T07:03:53;102090.81;;;5.59;68.64
1207;BME280;593;53.184;8.216;2023-04-05T07:06:18;102076.94;;;5.56;67.93
1207;BME280;593;53.184;8.216;2023-04-05T07:08:43;102093.88;;;5.76;65.50
1207;BME280;593;53.184;8.216;2023-04-05T07:11:09;102099.00;;;5.84;64.27
1207;BME280;593;53.184;8.216;2023-04-05T07:13:38;102086.34;;;5.91;63.05
1207;BME280;593;53.184;8.216;2023-04-05T07:16:03;102085.47;;;5.97;63.08
1207;BME280;593;53.184;8.216;2023-04-05T07:18:29;102077.16;;;5.99;63.06
1207;BME280;593;53.184;8.216;2023-04-05T07:20:56;102083.13;;;6.07;62.26
1207;BME280;593;53.184;8.216;2023-04-05T07:23:25;102082.47;;;6.12;62.98
1207;BME280;593;53.184;8.216;2023-04-05T07:25:50;102058.81;;;6.07;62.55
1207;BME280;593;53.184;8.216;2023-04-05T07:28:16;102082.97;;;6.27;63.00
1207;BME280;593;53.184;8.216;2023-04-05T07:30:41;102079.84;;;6.30;62.25
1207;BME280;593;53.184;8.216;2023-04-05T07:33:06;102091.66;;;6.35;63.00
1207;BME280;593;53.184;8.216;2023-04-05T07:35:32;102082.06;;;6.39;63.70
1207;BME280;593;53.184;8.216;2023-04-05T07:37:57;102079.69;;;6.50;63.75
1207;BME280;593;53.184;8.216;2023-04-05T07:40:22;102093.38;;;6.55;63.66
1207;BME280;593;53.184;8.216;2023-04-05T07:42:48;102083.16;;;6.57;61.56
1207;BME280;593;53.184;8.216;2023-04-05T07:45:13;102090.00;;;6.59;61.90
1207;BME280;593;53.184;8.216;2023-04-05T07:47:38;102083.94;;;6.64;62.14
1207;BME280;593;53.184;8.216;2023-04-05T07:50:04;102089.28;;;6.70;61.15
1207;BME280;593;53.184;8.216;2023-04-05T07:52:31;102082.78;;;6.78;60.34
1207;BME280;593;53.184;8.216;2023-04-05T07:54:56;102080.22;;;6.83;60.42
1207;BME280;593;53.184;8.216;2023-04-05T07:57:22;102081.88;;;6.84;59.98
1207;BME280;593;53.184;8.216;2023-04-05T07:59:48;102080.16;;;6.89;60.63
1207;BME280;593;53.184;8.216;2023-04-05T08:02:16;102082.81;;;6.96;59.75
1207;BME280;593;53.184;8.216;2023-04-05T08:04:42;102078.84;;;6.98;59.08
1207;BME280;593;53.184;8.216;2023-04-05T08:07:08;102079.63;;;6.99;58.77
1207;BME280;593;53.184;8.216;2023-04-05T08:09:34;102068.59;;;7.00;57.20
1207;BME280;593;53.184;8.216;2023-04-05T08:12:00;102070.72;;;6.98;57.81
1207;BME280;593;53.184;8.216;2023-04-05T08:14:27;102077.72;;;7.06;57.19
1207;BME280;593;53.184;8.216;2023-04-05T08:16:52;102082.97;;;7.01;56.12
1207;BME280;593;53.184;8.216;2023-04-05T08:19:17;102055.91;;;7.01;53.98
1207;BME280;593;53.184;8.216;2023-04-05T08:21:43;102077.03;;;7.10;54.18
1207;BME280;593;53.184;8.216;2023-04-05T08:24:08;102071.09;;;7.20;54.86
1207;BME280;593;53.184;8.216;2023-04-05T08:26:33;102085.38;;;7.27;55.86
1207;BME280;593;53.184;8.216;2023-04-05T08:28:59;102075.13;;;7.29;54.82
1207;BME280;593;53.184;8.216;2023-04-05T08:31:24;102073.81;;;7.38;55.43
1207;BME280;593;53.184;8.216;2023-04-05T08:33:50;102062.75;;;7.40;55.60
1207;BME280;593;53.184;8.216;2023-04-05T08:36:16;102068.88;;;7.47;55.84
1207;BME280;593;53.184;8.216;2023-04-05T08:38:41;102072.44;;;7.47;54.84
1207;BME280;593;53.184;8.216;2023-04-05T08:41:13;102074.84;;;7.55;53.16
1207;BME280;593;53.184;8.216;2023-04-05T08:43:57;102088.75;;;7.59;52.91
1207;BME280;593;53.184;8.216;2023-04-05T08:46:30;102067.91;;;7.59;52.83
1207;BME280;593;53.184;8.216;2023-04-05T08:48:56;102074.84;;;7.55;53.78
1207;BME280;593;53.184;8.216;2023-04-05T08:51:26;102068.03;;;7.64;51.84
1207;BME280;593;53.184;8.216;2023-04-05T08:53:52;102059.56;;;7.61;52.80
1207;BME280;593;53.184;8.216;2023-04-05T08:56:24;102059.47;;;7.67;50.17
1207;BME280;593;53.184;8.216;2023-04-05T08:58:58;102051.72;;;7.71;49.50
1207;BME280;593;53.184;8.216;2023-04-05T09:01:26;102056.06;;;7.72;50.42
1207;BME280;593;53.184;8.216;2023-04-05T09:03:53;102055.38;;;7.76;51.66
1207;BME280;593;53.184;8.216;2023-04-05T09:06:21;102062.69;;;7.76;51.71
1207;BME280;593;53.184;8.216;2023-04-05T09:08:47;102059.06;;;7.82;51.48
1207;BME280;593;53.184;8.216;2023-04-05T09:11:13;102054.75;;;7.93;51.23
1207;BME280;593;53.184;8.216;2023-04-05T09:13:39;102059.13;;;7.94;50.94
1207;BME280;593;53.184;8.216;2023-04-05T09:16:06;102052.63;;;7.95;50.04
1207;BME280;593;53.184;8.216;2023-04-05T09:18:31;102045.72;;;7.99;50.49
1207;BME280;593;53.184;8.216;2023-04-05T09:21:04;102057.41;;;8.11;52.04
1207;BME280;593;53.184;8.216;2023-04-05T09:23:30;102054.22;;;8.14;50.31
1207;BME280;593;53.184;8.216;2023-04-05T09:25:55;102054.38;;;8.19;50.40
1207;BME280;593;53.184;8.216;2023-04-05T09:28:21;102055.88;;;8.15;50.23
1207;BME280;593;53.184;8.216;2023-04-05T09:30:46;102043.25;;;8.09;49.26
1207;BME280;593;53.184;8.216;2023-04-05T09:33:15;102059.53;;;8.20;48.22
1207;BME280;593;53.184;8.216;2023-04-05T09:35:43;102057.28;;;8.17;48.77
1207;BME280;593;53.184;8.216;2023-04-05T09:38:08;102061.78;;;8.23;49.07
1207;BME280;593;53.184;8.216;2023-04-05T09:43:07;102049.94;;;8.36;49.52
1207;BME280;593;53.184;8.216;2023-04-05T09:45:38;102046.78;;;8.39;46.99
1207;BME280;593;53.184;8.216;2023-04-05T09:48:04;102049.25;;;8.41;48.54
1207;BME280;593;53.184;8.216;2023-04-05T09:50:29;102035.56;;;8.35;47.51
1207;BME280;593;53.184;8.216;2023-04-05T09:53:06;102052.19;;;8.51;48.15
1207;BME280;593;53.184;8.216;2023-04-05T09:55:32;102035.94;;;8.51;48.49
1207;BME280;593;53.184;8.216;2023-04-05T09:57:57;102048.78;;;8.55;47.70
1207;BME280;593;53.184;8.216;2023-04-05T10:00:23;102044.06;;;8.62;47.54
1207;BME280;593;53.184;8.216;2023-04-05T10:02:52;102045.25;;;8.66;46.97
1207;BME280;593;53.184;8.216;2023-04-05T10:05:18;102038.75;;;8.67;46.74
1207;BME280;593;53.184;8.216;2023-04-05T10:07:44;102043.97;;;8.69;48.17
1207;BME280;593;53.184;8.216;2023-04-05T10:10:12;102022.72;;;8.66;47.36
1207;BME280;593;53.184;8.216;2023-04-05T10:12:40;102037.09;;;8.78;46.63
1207;BME280;593;53.184;8.216;2023-04-05T10:15:07;102035.34;;;8.83;45.98
1207;BME280;593;53.184;8.216;2023-04-05T10:20:18;102027.06;;;8.90;46.37
1207;BME280;593;53.184;8.216;2023-04-05T10:23:27;102026.13;;;8.96;46.98
1207;BME280;593;53.184;8.216;2023-04-05T10:31:10;102020.09;;;9.06;47.63
1207;BME280;593;53.184;8.216;2023-04-05T10:33:44;102018.78;;;9.08;47.34
1207;BME280;593;53.184;8.216;2023-04-05T10:39:00;102010.03;;;9.18;45.84
1207;BME280;593;53.184;8.216;2023-04-05T10:41:30;102000.72;;;9.14;45.04
1207;BME280;593;53.184;8.216;2023-04-05T10:43:58;102011.69;;;9.19;45.26
1207;BME280;593;53.184;8.216;2023-04-05T10:46:23;102009.56;;;9.21;44.47
1207;BME280;593;53.184;8.216;2023-04-05T10:49:03;102016.75;;;9.27;45.86
1207;BME280;593;53.184;8.216;2023-04-05T10:51:33;102001.63;;;9.31;43.68
1207;BME280;593;53.184;8.216;2023-04-05T10:53:59;101996.66;;;9.28;43.25
1207;BME280;593;53.184;8.216;2023-04-05T10:56:25;102008.94;;;9.30;46.39
1207;BME280;593;53.184;8.216;2023-04-05T10:58:52;101998.44;;;9.34;44.04
1207;BME280;593;53.184;8.216;2023-04-05T11:01:19;101987.31;;;9.35;45.49
1207;BME280;593;53.184;8.216;2023-04-05T11:03:47;101999.22;;;9.46;47.35
1207;BME280;593;53.184;8.216;2023-04-05T11:08:58;101984.53;;;9.47;44.86
1207;BME280;593;53.184;8.216;2023-04-05T11:11:24;101990.91;;;9.52;44.13
1207;BME280;593;53.184;8.216;2023-04-05T11:13:55;101980.78;;;9.48;42.79
1207;BME280;593;53.184;8.216;2023-04-05T11:16:21;101974.88;;;9.51;44.70
1207;BME280;593;53.184;8.216;2023-04-05T11:18:51;101979.47;;;9.50;43.81
1207;BME280;593;53.184;8.216;2023-04-05T11:21:24;101971.41;;;9.55;41.58
1207;BME280;593;53.184;8.216;2023-04-05T11:23:59;101979.47;;;9.50;43.49
1207;BME280;593;53.184;8.216;2023-04-05T11:26:54;101979.22;;;9.52;42.66
1207;BME280;593;53.184;8.216;2023-04-05T11:29:46;101971.88;;;9.52;41.23
1207;BME280;593;53.184;8.216;2023-04-05T11:32:12;101971.56;;;9.49;41.09
1207;BME280;593;53.184;8.216;2023-04-05T11:34:40;101969.75;;;9.54;43.68
1207;BME280;593;53.184;8.216;2023-04-05T11:37:06;101957.56;;;9.57;42.83
1207;BME280;593;53.184;8.216;2023-04-05T11:39:31;101939.78;;;9.49;42.91
1207;BME280;593;53.184;8.216;2023-04-05T11:41:58;101962.41;;;9.66;42.02
1207;BME280;593;53.184;8.216;2023-04-05T11:44:24;101954.81;;;9.68;40.94
1207;BME280;593;53.184;8.216;2023-04-05T11:46:51;101953.50;;;9.71;44.68
1207;BME280;593;53.184;8.216;2023-04-05T11:49:16;101957.13;;;9.77;45.46
1207;BME280;593;53.184;8.216;2023-04-05T11:51:42;101950.13;;;9.81;44.01
1207;BME280;593;53.184;8.216;2023-04-05T11:54:08;101931.84;;;9.76;44.45
1207;BME280;593;53.184;8.216;2023-04-05T11:56:34;101942.41;;;9.89;47.01
1207;BME280;593;53.184;8.216;2023-04-05T11:59:00;101942.50;;;9.94;48.35
1207;BME280;593;53.184;8.216;2023-04-05T12:01:26;101941.28;;;10.02;47.52
1207;BME280;593;53.184;8.216;2023-04-05T12:03:55;101928.81;;;10.06;44.25
1207;BME280;593;53.184;8.216;2023-04-05T12:06:22;101932.38;;;10.06;44.65
1207;BME280;593;53.184;8.216;2023-04-05T12:08:48;101926.78;;;10.13;47.08
1207;BME280;593;53.184;8.216;2023-04-05T12:11:15;101926.38;;;10.21;47.75
1207;BME280;593;53.184;8.216;2023-04-05T12:13:44;101923.22;;;10.12;44.65
1207;BME280;593;53.184;8.216;2023-04-05T12:16:09;101930.16;;;10.20;44.85
1207;BME280;593;53.184;8.216;2023-04-05T12:18:36;101923.22;;;10.12;42.48
1207;BME280;593;53.184;8.216;2023-04-05T12:21:02;101917.31;;;10.15;44.74
1207;BME280;593;53.184;8.216;2023-04-05T12:23:28;101908.59;;;10.13;43.63
1207;BME280;593;53.184;8.216;2023-04-05T12:25:54;101911.63;;;10.17;43.52
1207;BME280;593;53.184;8.216;2023-04-05T12:28:21;101893.41;;;10.17;41.88
1207;BME280;593;53.184;8.216;2023-04-05T12:30:54;101913.59;;;10.21;42.32
1207;BME280;593;53.184;8.216;2023-04-05T12:33:27;101920.03;;;10.32;46.54
1207;BME280;593;53.184;8.216;2023-04-05T12:35:53;101914.88;;;10.36;44.83
1207;BME280;593;53.184;8.216;2023-04-05T12:38:18;101915.47;;;10.38;43.08
1207;BME280;593;53.184;8.216;2023-04-05T12:40:44;101919.84;;;10.39;41.76
1207;BME280;593;53.184;8.216;2023-04-05T12:43:10;101907.56;;;10.36;41.12
1207;BME280;593;53.184;8.216;2023-04-05T12:45:35;101883.44;;;10.23;41.79
1207;BME280;593;53.184;8.216;2023-04-05T12:48:28;101893.22;;;10.41;45.76
1207;BME280;593;53.184;8.216;2023-04-05T12:50:53;101888.19;;;10.32;42.87
1207;BME280;593;53.184;8.216;2023-04-05T12:53:23;101881.81;;;10.44;44.02
1207;BME280;593;53.184;8.216;2023-04-05T12:55:54;101887.16;;;10.55;44.38
1207;BME280;593;53.184;8.216;2023-04-05T12:58:21;101889.69;;;10.62;44.07
1207;BME280;593;53.184;8.216;2023-04-05T13:00:47;101874.56;;;10.71;47.81
1207;BME280;593;53.184;8.216;2023-04-05T13:03:17;101876.84;;;10.79;48.13
1207;BME280;593;53.184;8.216;2023-04-05T13:05:45;101870.75;;;10.93;49.30
1207;BME280;593;53.184;8.216;2023-04-05T13:08:11;101869.81;;;11.05;50.40
1207;BME280;593;53.184;8.216;2023-04-05T13:10:36;101873.50;;;11.20;52.02
1207;BME280;593;53.184;8.216;2023-04-05T13:13:01;101871.78;;;11.41;51.19
1207;BME280;593;53.184;8.216;2023-04-05T13:15:27;101871.84;;;11.46;48.28
1207;BME280;593;53.184;8.216;2023-04-05T13:17:52;101865.97;;;11.59;46.50
1207;BME280;593;53.184;8.216;2023-04-05T13:20:19;101861.03;;;11.56;42.79
1207;BME280;593;53.184;8.216;2023-04-05T13:22:45;101844.81;;;11.39;43.03
1207;BME280;593;53.184;8.216;2023-04-05T13:25:11;101858.00;;;11.52;44.88
1207;BME280;593;53.184;8.216;2023-04-05T13:27:36;101853.13;;;11.54;45.48
1207;BME280;593;53.184;8.216;2023-04-05T13:30:02;101854.25;;;11.58;45.41
1207;BME280;593;53.184;8.216;2023-04-05T13:32:28;101847.72;;;11.59;43.27
1207;BME280;593;53.184;8.216;2023-04-05T13:34:53;101845.56;;;11.62;44.67
1207;BME280;593;53.184;8.216;2023-04-05T13:37:18;101846.06;;;11.58;42.21
1207;BME280;593;53.184;8.216;2023-04-05T13:39:44;101829.69;;;11.53;41.83
1207;BME280;593;53.184;8.216;2023-04-05T13:42:10;101828.03;;;11.52;45.99
1207;BME280;593;53.184;8.216;2023-04-05T13:44:35;101833.47;;;11.79;48.53
1207;BME280;593;53.184;8.216;2023-04-05T13:47:02;101828.63;;;11.91;48.92
1207;BME280;593;53.184;8.216;2023-04-05T13:49:27;101823.81;;;12.03;50.83
1207;BME280;593;53.184;8.216;2023-04-05T13:51:52;101826.94;;;12.22;50.04
1207;BME280;593;53.184;8.216;2023-04-05T13:54:18;101819.41;;;12.49;51.07
1207;BME280;593;53.184;8.216;2023-04-05T13:56:44;101822.47;;;12.68;49.29